Terminal Aerodrome Forecast
Issued by NWS

Home | Current Version | Previous Version | Text Only | Print | Product List | Glossary On
Versions: 1 2 3 4 5 6 7 8 9 10 11 12 13
220
FTUS42 KMLB 030539
TAFSUA
TAF
KSUA 030539Z 0306/0406 02007KT P6SM FEW030 SCT350
     FM031500 06012G18KT P6SM SCT030 SCT300
     FM040000 08007KT P6SM BKN035=

USA.gov is the U.S. government's official web portal to all federal, state and local government web resources and services.